sensor_id;sensor_type;location;lat;lon;timestamp;P1;durP1;ratioP1;P2;durP2;ratioP2
21517;SDS011;61765;45.794;24.150;2023-06-22T00:07:43;15.75;;;12.63;;
21517;SDS011;61765;45.794;24.150;2023-06-22T00:15:48;14.60;;;11.93;;
21517;SDS011;61765;45.794;24.150;2023-06-22T00:23:56;15.15;;;11.30;;
21517;SDS011;61765;45.794;24.150;2023-06-22T00:32:02;13.00;;;11.43;;
21517;SDS011;61765;45.794;24.150;2023-06-22T00:40:11;13.02;;;10.77;;
21517;SDS011;61765;45.794;24.150;2023-06-22T00:48:16;16.83;;;10.55;;
21517;SDS011;61765;45.794;24.150;2023-06-22T00:56:25;13.77;;;11.38;;
21517;SDS011;61765;45.794;24.150;2023-06-22T01:04:34;13.30;;;10.80;;
21517;SDS011;61765;45.794;24.150;2023-06-22T01:12:45;13.10;;;10.93;;
21517;SDS011;61765;45.794;24.150;2023-06-22T01:20:54;15.35;;;11.15;;
21517;SDS011;61765;45.794;24.150;2023-06-22T01:29:04;14.20;;;10.98;;
21517;SDS011;61765;45.794;24.150;2023-06-22T01:37:14;13.97;;;11.10;;
21517;SDS011;61765;45.794;24.150;2023-06-22T01:45:22;12.10;;;10.52;;
21517;SDS011;61765;45.794;24.150;2023-06-22T01:53:28;13.73;;;10.15;;
21517;SDS011;61765;45.794;24.150;2023-06-22T02:01:38;11.65;;;10.30;;
21517;SDS011;61765;45.794;24.150;2023-06-22T02:09:48;13.57;;;10.88;;
21517;SDS011;61765;45.794;24.150;2023-06-22T02:17:59;15.15;;;11.48;;
21517;SDS011;61765;45.794;24.150;2023-06-22T02:26:04;13.10;;;10.73;;
21517;SDS011;61765;45.794;24.150;2023-06-22T02:34:13;18.58;;;10.95;;
21517;SDS011;61765;45.794;24.150;2023-06-22T02:42:20;13.77;;;10.32;;
21517;SDS011;61765;45.794;24.150;2023-06-22T02:50:28;13.57;;;9.80;;
21517;SDS011;61765;45.794;24.150;2023-06-22T02:58:34;14.00;;;10.25;;
21517;SDS011;61765;45.794;24.150;2023-06-22T03:06:46;17.15;;;10.68;;
21517;SDS011;61765;45.794;24.150;2023-06-22T03:14:53;12.15;;;10.60;;
21517;SDS011;61765;45.794;24.150;2023-06-22T03:23:02;12.75;;;10.95;;
21517;SDS011;61765;45.794;24.150;2023-06-22T03:31:08;13.68;;;9.98;;
21517;SDS011;61765;45.794;24.150;2023-06-22T03:39:17;13.50;;;10.93;;
21517;SDS011;61765;45.794;24.150;2023-06-22T03:47:23;13.05;;;10.88;;
21517;SDS011;61765;45.794;24.150;2023-06-22T03:55:34;12.60;;;9.52;;
21517;SDS011;61765;45.794;24.150;2023-06-22T04:03:40;13.65;;;10.98;;
21517;SDS011;61765;45.794;24.150;2023-06-22T04:11:50;14.95;;;10.77;;
21517;SDS011;61765;45.794;24.150;2023-06-22T04:19:55;11.23;;;10.00;;
21517;SDS011;61765;45.794;24.150;2023-06-22T04:28:03;10.57;;;9.43;;
21517;SDS011;61765;45.794;24.150;2023-06-22T04:36:14;14.05;;;10.85;;
21517;SDS011;61765;45.794;24.150;2023-06-22T04:44:22;20.77;;;12.02;;
21517;SDS011;61765;45.794;24.150;2023-06-22T04:52:28;18.98;;;12.23;;
21517;SDS011;61765;45.794;24.150;2023-06-22T05:00:36;19.65;;;12.55;;
21517;SDS011;61765;45.794;24.150;2023-06-22T05:08:42;18.17;;;12.80;;
21517;SDS011;61765;45.794;24.150;2023-06-22T05:16:50;16.10;;;11.32;;
21517;SDS011;61765;45.794;24.150;2023-06-22T05:25:00;14.68;;;10.95;;
21517;SDS011;61765;45.794;24.150;2023-06-22T05:33:08;14.35;;;10.50;;
21517;SDS011;61765;45.794;24.150;2023-06-22T05:41:14;13.43;;;10.25;;
21517;SDS011;61765;45.794;24.150;2023-06-22T05:49:22;15.35;;;10.68;;
21517;SDS011;61765;45.794;24.150;2023-06-22T05:57:31;21.43;;;11.33;;
21517;SDS011;61765;45.794;24.150;2023-06-22T06:05:41;14.07;;;10.30;;
21517;SDS011;61765;45.794;24.150;2023-06-22T06:13:47;14.40;;;11.10;;
21517;SDS011;61765;45.794;24.150;2023-06-22T06:21:55;13.43;;;10.57;;
21517;SDS011;61765;45.794;24.150;2023-06-22T06:30:02;11.57;;;9.27;;
21517;SDS011;61765;45.794;24.150;2023-06-22T06:38:11;13.63;;;10.20;;
21517;SDS011;61765;45.794;24.150;2023-06-22T06:46:16;13.05;;;9.70;;
21517;SDS011;61765;45.794;24.150;2023-06-22T06:54:25;12.20;;;10.50;;
21517;SDS011;61765;45.794;24.150;2023-06-22T07:02:31;13.15;;;10.18;;
21517;SDS011;61765;45.794;24.150;2023-06-22T07:10:39;15.52;;;10.45;;
21517;SDS011;61765;45.794;24.150;2023-06-22T07:18:44;12.18;;;9.88;;
21517;SDS011;61765;45.794;24.150;2023-06-22T07:26:53;12.98;;;9.52;;
21517;SDS011;61765;45.794;24.150;2023-06-22T07:35:01;12.95;;;9.40;;
21517;SDS011;61765;45.794;24.150;2023-06-22T07:43:09;15.32;;;10.32;;
21517;SDS011;61765;45.794;24.150;2023-06-22T07:51:15;13.50;;;9.30;;
21517;SDS011;61765;45.794;24.150;2023-06-22T07:59:24;13.10;;;11.45;;
21517;SDS011;61765;45.794;24.150;2023-06-22T08:07:29;15.60;;;10.65;;
21517;SDS011;61765;45.794;24.150;2023-06-22T08:15:38;12.00;;;9.98;;
21517;SDS011;61765;45.794;24.150;2023-06-22T08:23:54;12.13;;;10.52;;
21517;SDS011;61765;45.794;24.150;2023-06-22T08:32:03;12.55;;;10.02;;
21517;SDS011;61765;45.794;24.150;2023-06-22T08:40:09;12.68;;;10.55;;
21517;SDS011;61765;45.794;24.150;2023-06-22T08:48:18;13.88;;;10.55;;
21517;SDS011;61765;45.794;24.150;2023-06-22T08:56:23;16.17;;;10.75;;
21517;SDS011;61765;45.794;24.150;2023-06-22T09:04:31;13.98;;;10.75;;
21517;SDS011;61765;45.794;24.150;2023-06-22T09:12:38;12.48;;;9.88;;
21517;SDS011;61765;45.794;24.150;2023-06-22T09:20:47;12.15;;;10.77;;
21517;SDS011;61765;45.794;24.150;2023-06-22T09:28:58;17.52;;;12.07;;
21517;SDS011;61765;45.794;24.150;2023-06-22T09:38:00;13.55;;;11.48;;
21517;SDS011;61765;45.794;24.150;2023-06-22T09:46:05;17.33;;;12.13;;
21517;SDS011;61765;45.794;24.150;2023-06-22T09:54:14;12.38;;;11.07;;
21517;SDS011;61765;45.794;24.150;2023-06-22T10:02:19;16.08;;;14.27;;
21517;SDS011;61765;45.794;24.150;2023-06-22T10:28:35;12.30;;;5.80;;
21517;SDS011;61765;45.794;24.150;2023-06-22T10:36:40;6.95;;;5.22;;
21517;SDS011;61765;45.794;24.150;2023-06-22T10:44:50;7.47;;;4.38;;
21517;SDS011;61765;45.794;24.150;2023-06-22T10:52:56;6.38;;;5.68;;
21517;SDS011;61765;45.794;24.150;2023-06-22T11:01:05;8.48;;;6.13;;
21517;SDS011;61765;45.794;24.150;2023-06-22T11:09:27;8.75;;;6.90;;
21517;SDS011;61765;45.794;24.150;2023-06-22T11:17:35;9.70;;;6.35;;
21517;SDS011;61765;45.794;24.150;2023-06-22T11:25:41;8.35;;;6.47;;
21517;SDS011;61765;45.794;24.150;2023-06-22T11:33:50;8.13;;;6.32;;
21517;SDS011;61765;45.794;24.150;2023-06-22T11:41:55;8.52;;;6.50;;
21517;SDS011;61765;45.794;24.150;2023-06-22T11:50:03;12.18;;;7.80;;
21517;SDS011;61765;45.794;24.150;2023-06-22T11:58:10;9.25;;;7.07;;
21517;SDS011;61765;45.794;24.150;2023-06-22T12:06:18;9.15;;;6.93;;
21517;SDS011;61765;45.794;24.150;2023-06-22T12:14:23;9.70;;;6.60;;
21517;SDS011;61765;45.794;24.150;2023-06-22T12:22:33;12.98;;;6.60;;
21517;SDS011;61765;45.794;24.150;2023-06-22T12:30:39;12.68;;;6.45;;
21517;SDS011;61765;45.794;24.150;2023-06-22T12:38:47;11.77;;;6.10;;
21517;SDS011;61765;45.794;24.150;2023-06-22T12:46:54;8.90;;;4.97;;
21517;SDS011;61765;45.794;24.150;2023-06-22T12:55:03;9.43;;;4.75;;
21517;SDS011;61765;45.794;24.150;2023-06-22T13:11:59;9.17;;;4.83;;
21517;SDS011;61765;45.794;24.150;2023-06-22T13:28:13;9.27;;;4.75;;
21517;SDS011;61765;45.794;24.150;2023-06-22T13:36:29;7.97;;;5.30;;
21517;SDS011;61765;45.794;24.150;2023-06-22T13:44:37;10.23;;;4.80;;
21517;SDS011;61765;45.794;24.150;2023-06-22T13:52:43;7.32;;;5.53;;
21517;SDS011;61765;45.794;24.150;2023-06-22T14:00:51;7.63;;;5.07;;
21517;SDS011;61765;45.794;24.150;2023-06-22T14:08:57;8.13;;;4.75;;
21517;SDS011;61765;45.794;24.150;2023-06-22T14:17:05;9.88;;;4.13;;
21517;SDS011;61765;45.794;24.150;2023-06-22T14:25:11;8.98;;;4.50;;
21517;SDS011;61765;45.794;24.150;2023-06-22T14:33:19;8.63;;;4.70;;
21517;SDS011;61765;45.794;24.150;2023-06-22T14:41:24;12.00;;;5.70;;
21517;SDS011;61765;45.794;24.150;2023-06-22T14:49:32;8.85;;;5.40;;
21517;SDS011;61765;45.794;24.150;2023-06-22T14:57:38;13.75;;;5.53;;
21517;SDS011;61765;45.794;24.150;2023-06-22T15:05:46;7.95;;;5.10;;
21517;SDS011;61765;45.794;24.150;2023-06-22T15:13:52;10.63;;;6.38;;
21517;SDS011;61765;45.794;24.150;2023-06-22T15:22:00;11.27;;;6.43;;
21517;SDS011;61765;45.794;24.150;2023-06-22T15:30:06;8.48;;;5.97;;
21517;SDS011;61765;45.794;24.150;2023-06-22T15:38:15;12.90;;;6.20;;
21517;SDS011;61765;45.794;24.150;2023-06-22T15:46:20;8.48;;;6.45;;
21517;SDS011;61765;45.794;24.150;2023-06-22T15:54:28;11.07;;;5.90;;
21517;SDS011;61765;45.794;24.150;2023-06-22T16:02:34;7.35;;;5.50;;
21517;SDS011;61765;45.794;24.150;2023-06-22T16:10:42;14.73;;;6.47;;
21517;SDS011;61765;45.794;24.150;2023-06-22T16:18:47;12.35;;;6.20;;
21517;SDS011;61765;45.794;24.150;2023-06-22T16:26:56;10.63;;;5.57;;
21517;SDS011;61765;45.794;24.150;2023-06-22T16:35:01;9.55;;;5.30;;
21517;SDS011;61765;45.794;24.150;2023-06-22T16:43:10;10.82;;;6.47;;
21517;SDS011;61765;45.794;24.150;2023-06-22T16:51:16;9.55;;;6.00;;
21517;SDS011;61765;45.794;24.150;2023-06-22T16:59:24;11.85;;;6.28;;
21517;SDS011;61765;45.794;24.150;2023-06-22T17:07:29;10.13;;;6.47;;
21517;SDS011;61765;45.794;24.150;2023-06-22T17:15:41;14.15;;;6.45;;
21517;SDS011;61765;45.794;24.150;2023-06-22T17:23:47;13.68;;;8.35;;
21517;SDS011;61765;45.794;24.150;2023-06-22T17:31:58;14.02;;;7.63;;
21517;SDS011;61765;45.794;24.150;2023-06-22T17:40:07;13.93;;;8.50;;
21517;SDS011;61765;45.794;24.150;2023-06-22T17:48:21;12.68;;;8.45;;
21517;SDS011;61765;45.794;24.150;2023-06-22T17:56:27;12.93;;;6.63;;
21517;SDS011;61765;45.794;24.150;2023-06-22T18:04:35;10.57;;;6.88;;
21517;SDS011;61765;45.794;24.150;2023-06-22T18:12:40;24.75;;;12.95;;
21517;SDS011;61765;45.794;24.150;2023-06-22T18:20:50;15.48;;;10.55;;
21517;SDS011;61765;45.794;24.150;2023-06-22T18:28:56;23.52;;;12.20;;
21517;SDS011;61765;45.794;24.150;2023-06-22T18:37:05;14.25;;;8.15;;
21517;SDS011;61765;45.794;24.150;2023-06-22T18:45:21;8.43;;;7.33;;
21517;SDS011;61765;45.794;24.150;2023-06-22T18:53:31;29.48;;;14.32;;
21517;SDS011;61765;45.794;24.150;2023-06-22T19:01:36;15.85;;;8.60;;
21517;SDS011;61765;45.794;24.150;2023-06-22T19:09:47;9.68;;;7.22;;
21517;SDS011;61765;45.794;24.150;2023-06-22T19:18:26;15.10;;;7.95;;
21517;SDS011;61765;45.794;24.150;2023-06-22T19:26:38;13.63;;;7.30;;
21517;SDS011;61765;45.794;24.150;2023-06-22T19:34:55;9.38;;;8.18;;
21517;SDS011;61765;45.794;24.150;2023-06-22T19:43:05;17.65;;;8.65;;
21517;SDS011;61765;45.794;24.150;2023-06-22T19:51:11;9.60;;;8.23;;
21517;SDS011;61765;45.794;24.150;2023-06-22T19:59:25;14.07;;;9.52;;
21517;SDS011;61765;45.794;24.150;2023-06-22T20:07:38;12.48;;;8.60;;
21517;SDS011;61765;45.794;24.150;2023-06-22T20:15:48;9.32;;;8.02;;
21517;SDS011;61765;45.794;24.150;2023-06-22T20:23:54;11.93;;;9.00;;
21517;SDS011;61765;45.794;24.150;2023-06-22T20:32:06;10.65;;;7.97;;
21517;SDS011;61765;45.794;24.150;2023-06-22T20:40:15;11.20;;;8.68;;
21517;SDS011;61765;45.794;24.150;2023-06-22T20:48:36;12.18;;;8.68;;
21517;SDS011;61765;45.794;24.150;2023-06-22T20:56:44;12.00;;;9.00;;
21517;SDS011;61765;45.794;24.150;2023-06-22T21:04:54;15.10;;;8.63;;
21517;SDS011;61765;45.794;24.150;2023-06-22T21:12:59;14.07;;;9.60;;
21517;SDS011;61765;45.794;24.150;2023-06-22T21:21:08;12.73;;;9.90;;
21517;SDS011;61765;45.794;24.150;2023-06-22T21:29:13;10.07;;;8.68;;
21517;SDS011;61765;45.794;24.150;2023-06-22T21:37:21;14.10;;;10.48;;
21517;SDS011;61765;45.794;24.150;2023-06-22T21:45:28;16.13;;;9.55;;
21517;SDS011;61765;45.794;24.150;2023-06-22T21:53:37;10.40;;;8.82;;
21517;SDS011;61765;45.794;24.150;2023-06-22T22:01:42;9.23;;;8.05;;
21517;SDS011;61765;45.794;24.150;2023-06-22T22:09:51;10.77;;;8.60;;
21517;SDS011;61765;45.794;24.150;2023-06-22T22:17:56;12.05;;;8.75;;
21517;SDS011;61765;45.794;24.150;2023-06-22T22:26:08;10.45;;;8.60;;
21517;SDS011;61765;45.794;24.150;2023-06-22T22:34:16;11.60;;;8.60;;
21517;SDS011;61765;45.794;24.150;2023-06-22T22:42:24;11.48;;;8.95;;
21517;SDS011;61765;45.794;24.150;2023-06-22T22:50:30;11.88;;;8.25;;
21517;SDS011;61765;45.794;24.150;2023-06-22T22:58:38;12.60;;;9.55;;
21517;SDS011;61765;45.794;24.150;2023-06-22T23:06:46;10.45;;;8.93;;
21517;SDS011;61765;45.794;24.150;2023-06-22T23:14:55;14.13;;;9.98;;
21517;SDS011;61765;45.794;24.150;2023-06-22T23:23:00;12.05;;;10.50;;
21517;SDS011;61765;45.794;24.150;2023-06-22T23:31:08;12.85;;;10.45;;
21517;SDS011;61765;45.794;24.150;2023-06-22T23:39:15;14.98;;;11.20;;
21517;SDS011;61765;45.794;24.150;2023-06-22T23:47:23;14.13;;;12.40;;
21517;SDS011;61765;45.794;24.150;2023-06-22T23:55:30;15.65;;;10.63;;
